sensor_id;sensor_type;location;lat;lon;timestamp;pressure;altitude;pressure_sealevel;temperature;humidity
40490;BME280;26196;52.302;10.572;2023-06-26T00:02:28;100573.22;;;25.57;50.46
40490;BME280;26196;52.302;10.572;2023-06-26T00:06:28;100570.00;;;25.53;50.40
40490;BME280;26196;52.302;10.572;2023-06-26T00:10:29;100571.38;;;25.57;50.37
40490;BME280;26196;52.302;10.572;2023-06-26T00:14:29;100563.06;;;25.50;50.45
40490;BME280;26196;52.302;10.572;2023-06-26T00:18:29;100555.88;;;25.51;50.41
40490;BME280;26196;52.302;10.572;2023-06-26T00:22:30;100563.06;;;25.50;50.53
40490;BME280;26196;52.302;10.572;2023-06-26T00:26:30;100558.81;;;25.48;50.23
40490;BME280;26196;52.302;10.572;2023-06-26T00:30:30;100554.59;;;25.45;50.50
40490;BME280;26196;52.302;10.572;2023-06-26T00:34:31;100557.28;;;25.45;50.39
40490;BME280;26196;52.302;10.572;2023-06-26T00:38:31;100568.13;;;25.44;50.35
40490;BME280;26196;52.302;10.572;2023-06-26T00:42:31;100548.91;;;25.39;50.00
40490;BME280;26196;52.302;10.572;2023-06-26T00:46:32;100556.00;;;25.40;50.37
40490;BME280;26196;52.302;10.572;2023-06-26T00:50:33;100550.91;;;25.37;50.22
40490;BME280;26196;52.302;10.572;2023-06-26T00:54:33;100548.22;;;25.37;50.17
40490;BME280;26196;52.302;10.572;2023-06-26T00:58:34;100545.56;;;25.37;50.28
40490;BME280;26196;52.302;10.572;2023-06-26T01:02:34;100543.84;;;25.36;50.23
40490;BME280;26196;52.302;10.572;2023-06-26T01:06:34;100540.44;;;25.33;50.19
40490;BME280;26196;52.302;10.572;2023-06-26T01:10:35;100536.06;;;25.32;50.16
40490;BME280;26196;52.302;10.572;2023-06-26T01:14:36;100521.81;;;25.22;50.23
40490;BME280;26196;52.302;10.572;2023-06-26T01:18:38;100536.19;;;25.31;49.97
40490;BME280;26196;52.302;10.572;2023-06-26T01:22:48;100516.72;;;25.19;50.10
40490;BME280;26196;52.302;10.572;2023-06-26T01:26:54;100526.31;;;25.22;50.22
40490;BME280;26196;52.302;10.572;2023-06-26T01:30:55;100524.34;;;25.24;50.21
40490;BME280;26196;52.302;10.572;2023-06-26T01:34:57;100524.47;;;25.22;50.06
40490;BME280;26196;52.302;10.572;2023-06-26T01:38:57;100512.31;;;25.18;50.15
40490;BME280;26196;52.302;10.572;2023-06-26T01:42:58;100510.38;;;25.20;50.04
40490;BME280;26196;52.302;10.572;2023-06-26T01:47:01;100515.16;;;25.17;50.12
40490;BME280;26196;52.302;10.572;2023-06-26T01:51:01;100509.31;;;25.11;50.13
40490;BME280;26196;52.302;10.572;2023-06-26T01:55:10;100507.50;;;25.12;50.17
40490;BME280;26196;52.302;10.572;2023-06-26T01:59:12;100501.41;;;25.10;49.98
40490;BME280;26196;52.302;10.572;2023-06-26T02:03:15;100489.03;;;25.09;50.08
40490;BME280;26196;52.302;10.572;2023-06-26T02:07:16;100495.22;;;25.09;49.86
40490;BME280;26196;52.302;10.572;2023-06-26T02:11:16;100470.22;;;24.99;49.92
40490;BME280;26196;52.302;10.572;2023-06-26T02:15:16;100480.09;;;24.99;50.12
40490;BME280;26196;52.302;10.572;2023-06-26T02:19:17;100481.94;;;24.98;50.19
40490;BME280;26196;52.302;10.572;2023-06-26T02:23:21;100477.31;;;25.00;49.91
40490;BME280;26196;52.302;10.572;2023-06-26T02:27:21;100479.09;;;25.00;49.98
40490;BME280;26196;52.302;10.572;2023-06-26T02:31:22;100462.16;;;24.89;49.84
40490;BME280;26196;52.302;10.572;2023-06-26T02:35:22;100470.50;;;24.96;49.36
40490;BME280;26196;52.302;10.572;2023-06-26T02:39:22;100471.50;;;24.95;50.02
40490;BME280;26196;52.302;10.572;2023-06-26T02:43:23;100435.31;;;24.70;49.95
40490;BME280;26196;52.302;10.572;2023-06-26T02:47:23;100452.72;;;24.85;49.94
40490;BME280;26196;52.302;10.572;2023-06-26T02:51:23;100460.19;;;24.92;49.81
40490;BME280;26196;52.302;10.572;2023-06-26T02:55:24;100459.47;;;24.89;49.72
40490;BME280;26196;52.302;10.572;2023-06-26T02:59:25;100447.50;;;24.84;49.73
40490;BME280;26196;52.302;10.572;2023-06-26T03:03:26;100446.94;;;24.80;49.81
40490;BME280;26196;52.302;10.572;2023-06-26T03:07:26;100446.94;;;24.80;49.96
40490;BME280;26196;52.302;10.572;2023-06-26T03:11:26;100453.84;;;24.83;49.79
40490;BME280;26196;52.302;10.572;2023-06-26T03:15:27;100437.22;;;24.79;50.06
40490;BME280;26196;52.302;10.572;2023-06-26T03:19:27;100444.78;;;24.74;50.13
40490;BME280;26196;52.302;10.572;2023-06-26T03:23:27;100442.91;;;24.65;50.17
40490;BME280;26196;52.302;10.572;2023-06-26T03:27:28;100447.38;;;24.55;50.22
40490;BME280;26196;52.302;10.572;2023-06-26T03:31:28;100435.25;;;24.51;50.07
40490;BME280;26196;52.302;10.572;2023-06-26T03:35:28;100443.69;;;24.56;50.39
40490;BME280;26196;52.302;10.572;2023-06-26T03:39:29;100438.91;;;24.50;50.43
40490;BME280;26196;52.302;10.572;2023-06-26T03:43:29;100441.34;;;24.41;50.72
40490;BME280;26196;52.302;10.572;2023-06-26T03:47:29;100436.28;;;24.38;51.06
40490;BME280;26196;52.302;10.572;2023-06-26T03:51:30;100428.25;;;24.38;50.90
40490;BME280;26196;52.302;10.572;2023-06-26T03:55:30;100421.47;;;24.34;50.94
40490;BME280;26196;52.302;10.572;2023-06-26T03:59:31;100418.34;;;24.29;50.67
40490;BME280;26196;52.302;10.572;2023-06-26T04:03:32;100390.22;;;24.14;50.84
40490;BME280;26196;52.302;10.572;2023-06-26T04:07:33;100422.31;;;24.35;50.80
40490;BME280;26196;52.302;10.572;2023-06-26T04:11:33;100420.03;;;24.30;50.82
40490;BME280;26196;52.302;10.572;2023-06-26T04:15:34;100411.41;;;24.27;50.86
40490;BME280;26196;52.302;10.572;2023-06-26T04:19:34;100420.28;;;24.27;51.12
40490;BME280;26196;52.302;10.572;2023-06-26T04:23:36;100419.31;;;24.28;51.87
40490;BME280;26196;52.302;10.572;2023-06-26T04:27:36;100412.13;;;24.29;52.02
40490;BME280;26196;52.302;10.572;2023-06-26T04:31:38;100407.19;;;24.24;51.87
40490;BME280;26196;52.302;10.572;2023-06-26T04:35:39;100401.53;;;24.17;51.96
40490;BME280;26196;52.302;10.572;2023-06-26T04:39:39;100403.22;;;24.18;51.54
40490;BME280;26196;52.302;10.572;2023-06-26T04:43:39;100392.66;;;24.17;51.76
40490;BME280;26196;52.302;10.572;2023-06-26T04:47:40;100382.09;;;24.15;51.62
40490;BME280;26196;52.302;10.572;2023-06-26T04:51:40;100394.06;;;24.21;51.79
40490;BME280;26196;52.302;10.572;2023-06-26T04:55:40;100387.56;;;24.14;51.73
40490;BME280;26196;52.302;10.572;2023-06-26T04:59:41;100391.78;;;24.16;51.56
40490;BME280;26196;52.302;10.572;2023-06-26T05:03:41;100385.75;;;24.14;51.59
40490;BME280;26196;52.302;10.572;2023-06-26T05:07:41;100391.69;;;24.18;51.71
40490;BME280;26196;52.302;10.572;2023-06-26T05:11:42;100384.66;;;24.27;51.40
40490;BME280;26196;52.302;10.572;2023-06-26T05:15:46;100384.41;;;24.30;51.38
40490;BME280;26196;52.302;10.572;2023-06-26T05:19:46;100371.91;;;24.30;51.42
40490;BME280;26196;52.302;10.572;2023-06-26T05:23:47;100374.31;;;24.33;51.66
40490;BME280;26196;52.302;10.572;2023-06-26T05:27:48;100368.13;;;24.33;51.73
40490;BME280;26196;52.302;10.572;2023-06-26T05:31:49;100360.09;;;24.33;51.70
40490;BME280;26196;52.302;10.572;2023-06-26T05:35:53;100355.44;;;24.35;51.75
40490;BME280;26196;52.302;10.572;2023-06-26T05:39:54;100363.06;;;24.39;51.63
40490;BME280;26196;52.302;10.572;2023-06-26T05:43:55;100354.53;;;24.45;51.68
40490;BME280;26196;52.302;10.572;2023-06-26T05:47:55;100347.84;;;24.40;52.20
40490;BME280;26196;52.302;10.572;2023-06-26T05:51:56;100349.63;;;24.51;51.92
40490;BME280;26196;52.302;10.572;2023-06-26T05:55:56;100350.19;;;24.54;51.69
40490;BME280;26196;52.302;10.572;2023-06-26T05:59:57;100348.94;;;24.58;51.35
40490;BME280;26196;52.302;10.572;2023-06-26T06:03:57;100348.53;;;24.63;51.63
40490;BME280;26196;52.302;10.572;2023-06-26T06:07:58;100341.50;;;24.62;51.27
40490;BME280;26196;52.302;10.572;2023-06-26T06:11:58;100339.53;;;24.64;51.22
40490;BME280;26196;52.302;10.572;2023-06-26T06:15:59;100330.91;;;24.60;51.31
40490;BME280;26196;52.302;10.572;2023-06-26T06:19:59;100338.41;;;24.66;51.02
40490;BME280;26196;52.302;10.572;2023-06-26T06:24:00;100336.41;;;24.68;51.15
40490;BME280;26196;52.302;10.572;2023-06-26T06:28:01;100315.84;;;24.59;51.22
40490;BME280;26196;52.302;10.572;2023-06-26T06:32:01;100336.13;;;24.62;51.29
40490;BME280;26196;52.302;10.572;2023-06-26T06:36:02;100328.56;;;24.67;51.00
40490;BME280;26196;52.302;10.572;2023-06-26T06:40:02;100324.03;;;24.67;50.91
40490;BME280;26196;52.302;10.572;2023-06-26T06:44:04;100318.56;;;24.79;50.65
40490;BME280;26196;52.302;10.572;2023-06-26T06:48:04;100320.81;;;24.83;50.36
40490;BME280;26196;52.302;10.572;2023-06-26T06:52:05;100314.22;;;24.87;50.20
40490;BME280;26196;52.302;10.572;2023-06-26T06:56:06;100317.47;;;24.91;50.12
40490;BME280;26196;52.302;10.572;2023-06-26T07:00:09;100308.44;;;24.92;50.20
40490;BME280;26196;52.302;10.572;2023-06-26T07:04:10;100317.03;;;24.96;50.18
40490;BME280;26196;52.302;10.572;2023-06-26T07:08:10;100311.41;;;24.99;50.21
40490;BME280;26196;52.302;10.572;2023-06-26T07:12:10;100304.94;;;25.01;50.10
40490;BME280;26196;52.302;10.572;2023-06-26T07:16:11;100302.13;;;25.03;50.00
40490;BME280;26196;52.302;10.572;2023-06-26T07:20:11;100295.66;;;25.05;49.91
40490;BME280;26196;52.302;10.572;2023-06-26T07:24:15;100297.19;;;25.08;49.99
40490;BME280;26196;52.302;10.572;2023-06-26T07:28:15;100293.34;;;25.10;50.13
40490;BME280;26196;52.302;10.572;2023-06-26T07:32:16;100295.91;;;25.12;49.87
40490;BME280;26196;52.302;10.572;2023-06-26T07:36:16;100295.53;;;25.17;50.12
40490;BME280;26196;52.302;10.572;2023-06-26T07:40:16;100286.31;;;25.09;50.32
40490;BME280;26196;52.302;10.572;2023-06-26T07:44:17;100309.47;;;25.20;50.06
40490;BME280;26196;52.302;10.572;2023-06-26T07:48:18;100302.16;;;25.22;50.17
40490;BME280;26196;52.302;10.572;2023-06-26T07:52:18;100296.50;;;25.25;49.99
40490;BME280;26196;52.302;10.572;2023-06-26T07:56:19;100304.25;;;25.28;49.86
40490;BME280;26196;52.302;10.572;2023-06-26T08:00:20;100296.09;;;25.30;49.97
40490;BME280;26196;52.302;10.572;2023-06-26T08:04:22;100303.00;;;25.32;50.04
40490;BME280;26196;52.302;10.572;2023-06-26T08:08:22;100301.03;;;25.35;50.00
40490;BME280;26196;52.302;10.572;2023-06-26T08:12:23;100308.06;;;25.36;49.79
40490;BME280;26196;52.302;10.572;2023-06-26T08:16:23;100297.06;;;25.39;50.11
40490;BME280;26196;52.302;10.572;2023-06-26T08:20:23;100303.97;;;25.41;49.76
40490;BME280;26196;52.302;10.572;2023-06-26T08:24:24;100303.00;;;25.42;49.85
40490;BME280;26196;52.302;10.572;2023-06-26T08:28:24;100304.38;;;25.46;49.82
40490;BME280;26196;52.302;10.572;2023-06-26T08:32:24;100301.69;;;25.46;49.65
40490;BME280;26196;52.302;10.572;2023-06-26T08:36:25;100303.25;;;25.49;49.80
40490;BME280;26196;52.302;10.572;2023-06-26T08:40:26;100312.00;;;25.51;49.40
40490;BME280;26196;52.302;10.572;2023-06-26T08:44:27;100304.97;;;25.50;49.36
40490;BME280;26196;52.302;10.572;2023-06-26T08:48:29;100302.97;;;25.52;49.11
40490;BME280;26196;52.302;10.572;2023-06-26T08:52:43;100302.69;;;25.55;49.23
40490;BME280;26196;52.302;10.572;2023-06-26T08:56:46;100298.19;;;25.56;48.96
40490;BME280;26196;52.302;10.572;2023-06-26T09:00:48;100290.13;;;25.56;49.15
40490;BME280;26196;52.302;10.572;2023-06-26T09:04:50;100290.56;;;25.61;49.11
40490;BME280;26196;52.302;10.572;2023-06-26T09:08:50;100270.38;;;25.57;48.95
40490;BME280;26196;52.302;10.572;2023-06-26T09:12:55;100286.56;;;25.65;49.07
40490;BME280;26196;52.302;10.572;2023-06-26T09:16:55;100272.75;;;25.60;49.17
40490;BME280;26196;52.302;10.572;2023-06-26T09:20:56;100280.91;;;25.68;48.98
40490;BME280;26196;52.302;10.572;2023-06-26T09:24:56;100283.59;;;25.68;48.91
40490;BME280;26196;52.302;10.572;2023-06-26T09:28:57;100280.78;;;25.69;48.72
40490;BME280;26196;52.302;10.572;2023-06-26T09:32:57;100286.84;;;25.71;48.85
40490;BME280;26196;52.302;10.572;2023-06-26T09:36:58;100265.97;;;25.65;48.83
40490;BME280;26196;52.302;10.572;2023-06-26T09:40:58;100276.84;;;25.73;48.61
40490;BME280;26196;52.302;10.572;2023-06-26T09:44:59;100275.69;;;25.76;48.41
40490;BME280;26196;52.302;10.572;2023-06-26T09:49:07;100275.13;;;25.72;48.76
40490;BME280;26196;52.302;10.572;2023-06-26T09:53:12;100286.25;;;25.77;48.58
40490;BME280;26196;52.302;10.572;2023-06-26T09:57:18;100291.50;;;25.79;48.74
40490;BME280;26196;52.302;10.572;2023-06-26T10:01:19;100297.56;;;25.81;48.61
40490;BME280;26196;52.302;10.572;2023-06-26T10:05:19;100286.84;;;25.81;48.05
40490;BME280;26196;52.302;10.572;2023-06-26T10:09:21;100275.53;;;25.77;48.42
40490;BME280;26196;52.302;10.572;2023-06-26T10:13:26;100284.84;;;25.83;48.66
40490;BME280;26196;52.302;10.572;2023-06-26T10:17:28;100282.31;;;25.82;48.39
40490;BME280;26196;52.302;10.572;2023-06-26T10:21:31;100283.59;;;25.77;48.54
40490;BME280;26196;52.302;10.572;2023-06-26T10:25:31;100299.97;;;25.84;48.64
40490;BME280;26196;52.302;10.572;2023-06-26T10:29:34;100298.97;;;25.85;48.44
40490;BME280;26196;52.302;10.572;2023-06-26T10:33:35;100305.03;;;25.87;49.11
40490;BME280;26196;52.302;10.572;2023-06-26T10:37:52;100308.28;;;25.91;48.98
40490;BME280;26196;52.302;10.572;2023-06-26T10:41:54;100313.34;;;25.94;48.91
40490;BME280;26196;52.302;10.572;2023-06-26T10:45:55;100330.13;;;25.96;49.02
40490;BME280;26196;52.302;10.572;2023-06-26T10:49:55;100321.94;;;25.97;48.86
40490;BME280;26196;52.302;10.572;2023-06-26T10:53:56;100330.28;;;25.94;48.89
40490;BME280;26196;52.302;10.572;2023-06-26T10:57:56;100346.22;;;25.96;48.65
40490;BME280;26196;52.302;10.572;2023-06-26T11:01:58;100344.69;;;25.93;48.93
40490;BME280;26196;52.302;10.572;2023-06-26T11:06:17;100348.59;;;25.99;49.14
40490;BME280;26196;52.302;10.572;2023-06-26T11:10:18;100354.97;;;25.98;48.94
40490;BME280;26196;52.302;10.572;2023-06-26T11:14:20;100359.19;;;26.01;48.68
40490;BME280;26196;52.302;10.572;2023-06-26T11:18:21;100376.00;;;26.03;48.72
40490;BME280;26196;52.302;10.572;2023-06-26T11:22:21;100357.13;;;25.94;48.62
40490;BME280;26196;52.302;10.572;2023-06-26T11:26:24;100382.22;;;26.03;48.81
40490;BME280;26196;52.302;10.572;2023-06-26T11:30:25;100381.06;;;26.06;48.61
40490;BME280;26196;52.302;10.572;2023-06-26T11:34:29;100396.03;;;26.08;48.61
40490;BME280;26196;52.302;10.572;2023-06-26T11:38:37;100409.84;;;26.13;49.04
40490;BME280;26196;52.302;10.572;2023-06-26T11:42:38;100413.84;;;25.90;50.70
40490;BME280;26196;52.302;10.572;2023-06-26T11:46:38;100436.97;;;26.01;50.41
40490;BME280;26196;52.302;10.572;2023-06-26T11:50:39;100425.13;;;25.84;49.77
40490;BME280;26196;52.302;10.572;2023-06-26T11:54:39;100458.13;;;25.65;49.07
40490;BME280;26196;52.302;10.572;2023-06-26T11:59:02;100449.50;;;25.51;49.37
40490;BME280;26196;52.302;10.572;2023-06-26T12:03:04;100457.00;;;25.67;49.27
40490;BME280;26196;52.302;10.572;2023-06-26T12:12:26;100483.25;;;25.73;48.87
40490;BME280;26196;52.302;10.572;2023-06-26T12:16:28;100490.88;;;25.68;49.09
40490;BME280;26196;52.302;10.572;2023-06-26T12:20:29;100479.44;;;25.66;49.23
40490;BME280;26196;52.302;10.572;2023-06-26T12:24:32;100485.50;;;25.68;49.43
40490;BME280;26196;52.302;10.572;2023-06-26T12:28:36;100475.75;;;25.67;49.83
40490;BME280;26196;52.302;10.572;2023-06-26T12:32:36;100480.00;;;25.70;50.59
40490;BME280;26196;52.302;10.572;2023-06-26T12:36:45;100486.91;;;25.72;50.99
40490;BME280;26196;52.302;10.572;2023-06-26T12:40:45;100478.44;;;25.67;51.51
40490;BME280;26196;52.302;10.572;2023-06-26T12:44:47;100489.84;;;25.60;51.71
40490;BME280;26196;52.302;10.572;2023-06-26T12:48:47;100486.34;;;25.59;51.63
40490;BME280;26196;52.302;10.572;2023-06-26T12:52:48;100478.03;;;25.52;51.61
40490;BME280;26196;52.302;10.572;2023-06-26T12:56:48;100494.25;;;25.61;51.77
40490;BME280;26196;52.302;10.572;2023-06-26T13:00:49;100489.72;;;25.61;51.76
40490;BME280;26196;52.302;10.572;2023-06-26T13:04:49;100494.38;;;25.59;51.68
40490;BME280;26196;52.302;10.572;2023-06-26T13:08:49;100487.91;;;25.62;51.93
40490;BME280;26196;52.302;10.572;2023-06-26T13:12:50;100493.41;;;25.60;52.05
40490;BME280;26196;52.302;10.572;2023-06-26T13:16:51;100487.75;;;25.53;52.25
40490;BME280;26196;52.302;10.572;2023-06-26T13:20:51;100487.19;;;25.50;52.29
40490;BME280;26196;52.302;10.572;2023-06-26T13:24:51;100497.03;;;25.49;52.21
40490;BME280;26196;52.302;10.572;2023-06-26T13:28:52;100482.66;;;25.41;52.08
40490;BME280;26196;52.302;10.572;2023-06-26T13:32:52;100479.28;;;25.48;51.99
40490;BME280;26196;52.302;10.572;2023-06-26T13:36:53;100463.22;;;25.58;51.09
40490;BME280;26196;52.302;10.572;2023-06-26T13:40:54;100461.66;;;25.65;50.56
40490;BME280;26196;52.302;10.572;2023-06-26T13:44:57;100458.72;;;25.68;49.93
40490;BME280;26196;52.302;10.572;2023-06-26T13:48:57;100452.34;;;25.69;49.85
40490;BME280;26196;52.302;10.572;2023-06-26T13:52:58;100464.34;;;25.75;49.75
40490;BME280;26196;52.302;10.572;2023-06-26T13:56:58;100443.47;;;25.69;49.09
40490;BME280;26196;52.302;10.572;2023-06-26T14:01:02;100462.38;;;25.77;49.12
40490;BME280;26196;52.302;10.572;2023-06-26T14:05:04;100458.84;;;25.76;48.82
40490;BME280;26196;52.302;10.572;2023-06-26T14:09:04;100461.66;;;25.75;48.58
40490;BME280;26196;52.302;10.572;2023-06-26T14:13:05;100447.69;;;25.71;48.21
40490;BME280;26196;52.302;10.572;2023-06-26T14:17:05;100456.47;;;25.73;48.15
40490;BME280;26196;52.302;10.572;2023-06-26T14:21:06;100465.06;;;25.77;47.85
40490;BME280;26196;52.302;10.572;2023-06-26T14:25:07;100463.09;;;25.79;47.65
40490;BME280;26196;52.302;10.572;2023-06-26T14:29:08;100466.59;;;25.80;47.52
40490;BME280;26196;52.302;10.572;2023-06-26T14:33:08;100462.25;;;25.79;47.45
40490;BME280;26196;52.302;10.572;2023-06-26T14:37:09;100462.25;;;25.79;45.85
40490;BME280;26196;52.302;10.572;2023-06-26T14:41:09;100463.38;;;25.76;45.29
40490;BME280;26196;52.302;10.572;2023-06-26T14:45:10;100463.38;;;25.76;45.27
40490;BME280;26196;52.302;10.572;2023-06-26T14:49:11;100457.84;;;25.77;46.23
40490;BME280;26196;52.302;10.572;2023-06-26T14:53:12;100447.97;;;25.78;45.63
40490;BME280;26196;52.302;10.572;2023-06-26T14:57:12;100463.78;;;25.81;45.31
40490;BME280;26196;52.302;10.572;2023-06-26T15:01:13;100445.72;;;25.73;45.47
40490;BME280;26196;52.302;10.572;2023-06-26T15:05:16;100449.69;;;25.79;45.56
40490;BME280;26196;52.302;10.572;2023-06-26T15:09:16;100458.44;;;25.81;45.59
40490;BME280;26196;52.302;10.572;2023-06-26T15:13:17;100454.19;;;25.79;45.37
40490;BME280;26196;52.302;10.572;2023-06-26T15:17:17;100459.97;;;25.74;45.06
40490;BME280;26196;52.302;10.572;2023-06-26T15:21:17;100455.16;;;25.77;45.49
40490;BME280;26196;52.302;10.572;2023-06-26T15:25:18;100452.47;;;25.77;45.25
40490;BME280;26196;52.302;10.572;2023-06-26T15:29:18;100451.50;;;25.79;45.04
40490;BME280;26196;52.302;10.572;2023-06-26T15:33:18;100410.03;;;25.63;46.47
40490;BME280;26196;52.302;10.572;2023-06-26T15:37:19;100447.84;;;25.80;44.72
40490;BME280;26196;52.302;10.572;2023-06-26T15:41:19;100449.38;;;25.72;43.50
40490;BME280;26196;52.302;10.572;2023-06-26T15:45:19;100446.97;;;25.69;43.63
40490;BME280;26196;52.302;10.572;2023-06-26T15:49:25;100445.72;;;25.73;43.71
40490;BME280;26196;52.302;10.572;2023-06-26T15:53:36;100443.59;;;25.77;44.25
40490;BME280;26196;52.302;10.572;2023-06-26T15:57:37;100456.59;;;25.72;42.93
40490;BME280;26196;52.302;10.572;2023-06-26T16:01:37;100461.09;;;25.71;43.40
40490;BME280;26196;52.302;10.572;2023-06-26T16:05:38;100461.66;;;25.65;43.36
40490;BME280;26196;52.302;10.572;2023-06-26T16:09:38;100471.13;;;25.69;42.90
40490;BME280;26196;52.302;10.572;2023-06-26T16:13:39;100474.34;;;25.53;42.84
40490;BME280;26196;52.302;10.572;2023-06-26T16:17:39;100477.59;;;25.57;43.19
40490;BME280;26196;52.302;10.572;2023-06-26T16:21:40;100479.00;;;25.61;42.45
40490;BME280;26196;52.302;10.572;2023-06-26T16:25:40;100481.69;;;25.61;41.86
40490;BME280;26196;52.302;10.572;2023-06-26T16:29:41;100481.53;;;25.43;41.69
40490;BME280;26196;52.302;10.572;2023-06-26T16:33:43;100482.66;;;25.41;41.36
40490;BME280;26196;52.302;10.572;2023-06-26T16:37:43;100493.69;;;25.47;41.32
40490;BME280;26196;52.302;10.572;2023-06-26T16:41:43;100499.44;;;25.43;41.39
40490;BME280;26196;52.302;10.572;2023-06-26T16:45:44;100499.84;;;25.38;40.98
40490;BME280;26196;52.302;10.572;2023-06-26T16:49:44;100499.56;;;25.31;40.85
40490;BME280;26196;52.302;10.572;2023-06-26T16:53:45;100521.25;;;25.28;40.77
40490;BME280;26196;52.302;10.572;2023-06-26T16:57:45;100514.75;;;25.21;41.19
40490;BME280;26196;52.302;10.572;2023-06-26T17:01:46;100525.88;;;25.17;41.06
40490;BME280;26196;52.302;10.572;2023-06-26T17:05:47;100531.03;;;25.08;40.88
40490;BME280;26196;52.302;10.572;2023-06-26T17:09:47;100534.09;;;25.04;41.19
40490;BME280;26196;52.302;10.572;2023-06-26T17:13:48;100534.22;;;25.02;41.50
40490;BME280;26196;52.302;10.572;2023-06-26T17:17:48;100534.66;;;25.07;41.49
40490;BME280;26196;52.302;10.572;2023-06-26T17:21:49;100534.22;;;25.02;41.56
40490;BME280;26196;52.302;10.572;2023-06-26T17:25:49;100558.66;;;25.09;41.59
40490;BME280;26196;52.302;10.572;2023-06-26T17:29:50;100556.91;;;24.98;41.44
40490;BME280;26196;52.302;10.572;2023-06-26T17:33:50;100563.84;;;25.01;41.91
40490;BME280;26196;52.302;10.572;2023-06-26T17:37:50;100570.78;;;25.13;41.95
40490;BME280;26196;52.302;10.572;2023-06-26T17:41:52;100556.66;;;25.01;41.12
40490;BME280;26196;52.302;10.572;2023-06-26T17:45:52;100574.72;;;25.09;41.42
40490;BME280;26196;52.302;10.572;2023-06-26T17:49:53;100584.44;;;25.10;41.75
40490;BME280;26196;52.302;10.572;2023-06-26T17:53:53;100588.78;;;25.22;41.99
40490;BME280;26196;52.302;10.572;2023-06-26T17:58:10;100598.09;;;25.28;42.27
40490;BME280;26196;52.302;10.572;2023-06-26T18:02:10;100611.66;;;25.26;42.20
40490;BME280;26196;52.302;10.572;2023-06-26T18:06:12;100603.16;;;25.21;42.29
40490;BME280;26196;52.302;10.572;2023-06-26T18:10:13;100611.38;;;25.29;42.60
40490;BME280;26196;52.302;10.572;2023-06-26T18:14:14;100626.31;;;25.32;43.08
40490;BME280;26196;52.302;10.572;2023-06-26T18:18:14;100624.75;;;25.29;42.78
40490;BME280;26196;52.302;10.572;2023-06-26T18:22:15;100621.03;;;25.21;42.48
40490;BME280;26196;52.302;10.572;2023-06-26T18:26:18;100628.56;;;25.27;42.57
40490;BME280;26196;52.302;10.572;2023-06-26T18:30:19;100632.66;;;25.31;42.39
40490;BME280;26196;52.302;10.572;2023-06-26T18:34:19;100629.28;;;25.29;42.49
40490;BME280;26196;52.302;10.572;2023-06-26T18:38:21;100632.09;;;25.27;42.64
40490;BME280;26196;52.302;10.572;2023-06-26T18:42:22;100641.50;;;25.22;42.53
40490;BME280;26196;52.302;10.572;2023-06-26T18:46:22;100650.94;;;25.16;42.47
40490;BME280;26196;52.302;10.572;2023-06-26T18:50:27;100655.72;;;25.01;42.18
40490;BME280;26196;52.302;10.572;2023-06-26T18:54:28;100647.78;;;24.90;42.16
40490;BME280;26196;52.302;10.572;2023-06-26T18:58:28;100664.28;;;24.95;42.49
40490;BME280;26196;52.302;10.572;2023-06-26T19:02:29;100666.25;;;24.93;42.65
40490;BME280;26196;52.302;10.572;2023-06-26T19:06:29;100671.16;;;24.88;42.29
40490;BME280;26196;52.302;10.572;2023-06-26T19:10:29;100669.31;;;24.88;42.48
40490;BME280;26196;52.302;10.572;2023-06-26T19:14:30;100683.22;;;24.82;42.69
40490;BME280;26196;52.302;10.572;2023-06-26T19:18:30;100684.66;;;24.86;42.39
40490;BME280;26196;52.302;10.572;2023-06-26T19:22:31;100690.66;;;24.79;42.73
40490;BME280;26196;52.302;10.572;2023-06-26T19:26:32;100690.41;;;24.82;42.44
40490;BME280;26196;52.302;10.572;2023-06-26T19:30:34;100691.06;;;24.74;42.41
40490;BME280;26196;52.302;10.572;2023-06-26T19:34:35;100658.56;;;24.47;42.44
40490;BME280;26196;52.302;10.572;2023-06-26T19:38:35;100703.34;;;24.77;42.61
40490;BME280;26196;52.302;10.572;2023-06-26T19:42:36;100698.84;;;24.66;42.31
40490;BME280;26196;52.302;10.572;2023-06-26T19:46:36;100706.88;;;24.66;42.80
40490;BME280;26196;52.302;10.572;2023-06-26T19:50:37;100714.28;;;24.74;42.57
40490;BME280;26196;52.302;10.572;2023-06-26T19:54:37;100719.69;;;24.62;42.59
40490;BME280;26196;52.302;10.572;2023-06-26T19:58:38;100722.00;;;24.67;42.80
40490;BME280;26196;52.302;10.572;2023-06-26T20:02:38;100725.59;;;24.77;42.72
40490;BME280;26196;52.302;10.572;2023-06-26T20:06:39;100734.34;;;24.79;42.88
40490;BME280;26196;52.302;10.572;2023-06-26T20:10:39;100737.88;;;24.80;43.03
40490;BME280;26196;52.302;10.572;2023-06-26T20:14:39;100741.13;;;24.83;42.89
40490;BME280;26196;52.302;10.572;2023-06-26T20:18:40;100742.81;;;24.84;43.16
40490;BME280;26196;52.302;10.572;2023-06-26T20:22:40;100739.44;;;24.82;43.37
40490;BME280;26196;52.302;10.572;2023-06-26T20:26:42;100740.41;;;24.81;43.51
40490;BME280;26196;52.302;10.572;2023-06-26T20:30:43;100740.56;;;24.80;43.29
40490;BME280;26196;52.302;10.572;2023-06-26T20:34:43;100746.13;;;24.88;42.79
40490;BME280;26196;52.302;10.572;2023-06-26T20:38:44;100754.16;;;24.88;42.96
40490;BME280;26196;52.302;10.572;2023-06-26T20:42:44;100760.34;;;24.88;43.04
40490;BME280;26196;52.302;10.572;2023-06-26T20:46:45;100761.19;;;24.89;43.13
40490;BME280;26196;52.302;10.572;2023-06-26T20:50:55;100759.88;;;24.83;42.50